Storm Events Database

Event Details

Event Thunderstorm Wind
Magnitude 50 kts.
State ALABAMA
County/Area ST. CLAIR
WFO BMX
Begin Date 08/02/2008 17:59:00 CST-6
Begin Range 1
Begin Azimuth N
Begin Location RAGLAND
Begin Lat/Lon 33.74/-86.15
End Date 08/02/2008 17:59:00 CST-6
Deaths Direct/Indirect 0/0 (fatality details below, when available...)
Injuries Direct/Indirect 0/0
Property Damage 1.00K
Crop Damage 0.00K
Episode Narrative A cold front pressing into Alabama from the north caused several severe thunderstorms, with large hail and damaging winds.
Event Narrative Several trees and power lines were blown down.


All events for this episode:

Location County/Zone St. Date Time T.Z. Type Mag Dth Inj PrD CrD
Totals: 0 0 209.00K 0.00K
RINGGOLD CHEROKEE CO. AL 08/02/2008 14:50 CST-6 Hail 1.00 in. 0 0 0.00K 0.00K
GAYLESVILLE CHEROKEE CO. AL 08/02/2008 15:04 CST-6 Thunderstorm Wind 50 kts. EG 0 0 1.00K 0.00K
MARIGOLD WALKER CO. AL 08/02/2008 15:50 CST-6 Hail 0.75 in. 0 0 0.00K 0.00K
LAWRENCE CHEROKEE CO. AL 08/02/2008 16:02 CST-6 Hail 1.75 in. 0 0 0.00K 0.00K
DORA WALKER CO. AL 08/02/2008 16:06 CST-6 Hail 1.00 in. 0 0 0.00K 0.00K
HOWELLS XRDS CHEROKEE CO. AL 08/02/2008 16:16 CST-6 Hail 0.88 in. 0 0 0.00K 0.00K
GORGAS WALKER CO. AL 08/02/2008 16:23 CST-6 Hail 0.88 in. 0 0 0.00K 0.00K
JASPER WALKER CO. AL 08/02/2008 16:24 CST-6 Hail 0.88 in. 0 0 0.00K 0.00K
COAL VLY WALKER CO. AL 08/02/2008 16:34 CST-6 Hail 0.75 in. 0 0 0.00K 0.00K
WARRIOR JEFFERSON CO. AL 08/02/2008 16:50 CST-6 Hail 1.00 in. 0 0 0.00K 0.00K
WARRIOR JEFFERSON CO. AL 08/02/2008 16:50 CST-6 Thunderstorm Wind 52 kts. MG 0 0 0.00K 0.00K
GADSDEN ETOWAH CO. AL 08/02/2008 16:55 CST-6 Hail 1.00 in. 0 0 0.00K 0.00K
GLENCOE ETOWAH CO. AL 08/02/2008 17:01 CST-6 Hail 1.00 in. 0 0 0.00K 0.00K
RAINBOW CITY ETOWAH CO. AL 08/02/2008 17:03 CST-6 Thunderstorm Wind 50 kts. EG 0 0 2.00K 0.00K
WILLIAMS ETOWAH CO. AL 08/02/2008 17:03 CST-6 Thunderstorm Wind 87 kts. EG 0 0 154.00K 0.00K
RAINBOW CITY ETOWAH CO. AL 08/02/2008 17:03 CST-6 Hail 0.88 in. 0 0 0.00K 0.00K
SUMITON WALKER CO. AL 08/02/2008 17:05 CST-6 Thunderstorm Wind 50 kts. EG 0 0 1.00K 0.00K
READS MILL CALHOUN CO. AL 08/02/2008 17:14 CST-6 Thunderstorm Wind 50 kts. EG 0 0 1.00K 0.00K
SAMANTHA TUSCALOOSA CO. AL 08/02/2008 17:24 CST-6 Hail 1.75 in. 0 0 0.00K 0.00K
MIDDLETON CALHOUN CO. AL 08/02/2008 17:53 CST-6 Thunderstorm Wind 50 kts. EG 0 0 10.00K 0.00K
RAGLAND ST. CLAIR CO. AL 08/02/2008 17:59 CST-6 Thunderstorm Wind 50 kts. EG 0 0 1.00K 0.00K
LINCOLN TALLADEGA CO. AL 08/02/2008 18:29 CST-6 Thunderstorm Wind 50 kts. EG 0 0 10.00K 0.00K
LINCOLN TALLADEGA CO. AL 08/02/2008 18:29 CST-6 Thunderstorm Wind 50 kts. EG 0 0 1.00K 0.00K
REFORM PICKENS CO. AL 08/02/2008 18:30 CST-6 Thunderstorm Wind 50 kts. EG 0 0 2.00K 0.00K
MOUNDVILLE HALE CO. AL 08/02/2008 18:30 CST-6 Thunderstorm Wind 50 kts. EG 0 0 10.00K 0.00K
POWERS HALE CO. AL 08/02/2008 18:30 CST-6 Thunderstorm Wind 40 kts. EG 0 0 1.00K 0.00K
STEMLEY TALLADEGA CO. AL 08/02/2008 18:31 CST-6 Thunderstorm Wind 50 kts. EG 0 0 2.00K 0.00K
LINCOLN TALLADEGA CO. AL 08/02/2008 18:39 CST-6 Hail 1.25 in. 0 0 0.00K 0.00K
ALICEVILLE PICKENS CO. AL 08/02/2008 18:59 CST-6 Thunderstorm Wind 50 kts. EG 0 0 1.00K 0.00K
VINCENT SHELBY CO. AL 08/02/2008 19:03 CST-6 Thunderstorm Wind 50 kts. EG 0 0 3.00K 0.00K
HARPERSVILLE SHELBY CO. AL 08/02/2008 19:16 CST-6 Thunderstorm Wind 50 kts. EG 0 0 2.00K 0.00K
BON AIR TALLADEGA CO. AL 08/02/2008 19:16 CST-6 Thunderstorm Wind 50 kts. EG 0 0 2.00K 0.00K
PANOLA SUMTER CO. AL 08/02/2008 19:28 CST-6 Thunderstorm Wind 50 kts. EG 0 0 2.00K 0.00K
GEIGER SUMTER CO. AL 08/02/2008 19:32 CST-6 Thunderstorm Wind 50 kts. EG 0 0 1.00K 0.00K
SUMTERVILLE SUMTER CO. AL 08/02/2008 20:01 CST-6 Thunderstorm Wind 50 kts. EG 0 0 2.00K 0.00K
YORK MALLARD ARPT SUMTER CO. AL 08/02/2008 20:28 CST-6 Hail 0.88 in. 0 0 0.00K 0.00K
Totals: 0 0 209.00K 0.00K